Time;durP1;ratioP1;P1;durP2;ratioP2;P2;SDS_P1;SDS_P2;PMS_P1;PMS_P2;Temp;Humidity;BMP_temperature;BMP_pressure;BME280_temperature;BME280_humidity;BME280_pressure;Samples;Min_cycle;Max_cycle;Signal;HPM_P1;HPM_P2
2022/09/05 00:02:14;;;;;;;3.45;3.12;;;16.10;67.30;;;;;;610880;235;26894;-63
2022/09/05 00:05:03;;;;;;;3.00;2.80;;;16.10;66.20;;;;;;610206;235;26658;-63
2022/09/05 00:07:33;;;;;;;2.95;2.75;;;16.10;67.20;;;;;;603257;234;26653;-63
2022/09/05 00:10:04;;;;;;;3.00;2.70;;;16.00;65.80;;;;;;605003;235;26704;-63
2022/09/05 00:12:31;;;;;;;3.20;2.53;;;16.00;66.70;;;;;;607812;234;27158;-63
2022/09/05 00:15:09;;;;;;;3.33;3.03;;;16.00;67.20;;;;;;608169;235;26652;-63
2022/09/05 00:17:55;;;;;;;3.33;3.03;;;16.00;66.90;;;;;;610192;235;26629;-64
2022/09/05 00:20:39;;;;;;;3.28;2.70;;;15.90;66.70;;;;;;605522;235;26697;-63
2022/09/05 00:23:29;;;;;;;3.03;2.80;;;16.00;67.20;;;;;;597646;235;26615;-64
2022/09/05 00:26:03;;;;;;;3.50;3.10;;;16.00;67.00;;;;;;599070;234;26927;-64
2022/09/05 00:28:36;;;;;;;3.37;2.80;;;16.00;67.40;;;;;;609250;233;26635;-63
2022/09/05 00:31:15;;;;;;;2.80;2.60;;;16.00;67.20;;;;;;606270;234;26610;-63
2022/09/05 00:33:56;;;;;;;2.37;2.28;;;15.90;68.00;;;;;;610165;234;26594;-63
2022/09/05 00:36:28;;;;;;;3.35;2.97;;;15.90;67.70;;;;;;606411;234;26623;-64
2022/09/05 00:38:59;;;;;;;3.10;2.85;;;15.90;67.70;;;;;;610449;235;26604;-63
2022/09/05 00:41:26;;;;;;;3.83;2.75;;;15.90;66.90;;;;;;605817;235;26630;-64
2022/09/05 00:43:55;;;;;;;3.35;3.05;;;15.90;67.10;;;;;;610176;235;26845;-64
2022/09/05 00:46:22;;;;;;;3.15;2.85;;;15.90;67.70;;;;;;609260;235;26601;-63
2022/09/05 00:48:52;;;;;;;4.20;2.83;;;15.90;67.50;;;;;;607595;235;26617;-63
2022/09/05 00:51:29;;;;;;;3.95;2.97;;;15.90;67.50;;;;;;608868;235;26631;-63
2022/09/05 00:54:08;;;;;;;2.78;2.58;;;15.90;67.20;;;;;;609278;235;26615;-63
2022/09/05 00:56:55;;;;;;;3.00;2.80;;;15.90;67.20;;;;;;611912;235;26576;-64
2022/09/05 00:59:30;;;;;;;2.90;2.70;;;15.80;67.40;;;;;;599398;234;26615;-64
2022/09/05 01:02:00;;;;;;;3.10;2.80;;;15.80;67.40;;;;;;611613;234;26871;-64
2022/09/05 01:04:32;;;;;;;5.15;3.60;;;15.90;68.30;;;;;;609578;235;26627;-64
2022/09/05 01:07:18;;;;;;;3.60;3.15;;;15.80;66.60;;;;;;608706;235;26581;-63
2022/09/05 01:09:50;;;;;;;4.62;2.92;;;15.80;68.00;;;;;;605579;235;26605;-63
2022/09/05 01:12:19;;;;;;;3.40;3.10;;;15.80;67.30;;;;;;612402;234;26869;-63
2022/09/05 01:15:14;;;;;;;2.95;2.75;;;15.80;67.70;;;;;;607428;235;26596;-63
2022/09/05 01:18:03;;;;;;;4.80;3.33;;;15.90;67.80;;;;;;599648;235;26713;-63
2022/09/05 01:20:48;;;;;;;3.15;2.85;;;15.80;67.80;;;;;;604648;235;26602;-63
2022/09/05 01:23:35;;;;;;;3.28;3.08;;;15.80;67.80;;;;;;605954;235;26641;-64
2022/09/05 01:26:25;;;;;;;3.85;3.08;;;15.90;68.70;;;;;;604207;235;26609;-63
2022/09/05 01:28:55;;;;;;;3.12;2.87;;;15.90;68.50;;;;;;598376;234;26611;-64
2022/09/05 01:31:22;;;;;;;3.40;3.20;;;15.90;68.50;;;;;;608737;235;26648;-63
2022/09/05 01:33:56;;;;;;;3.40;3.20;;;15.90;67.60;;;;;;611605;235;26845;-63
2022/09/05 01:36:42;;;;;;;3.00;2.80;;;15.90;67.40;;;;;;609387;235;27032;-63
2022/09/05 01:39:42;;;;;;;3.42;3.12;;;15.90;68.10;;;;;;606384;235;27045;-63
2022/09/05 01:42:43;;;;;;;3.62;3.33;;;15.80;68.00;;;;;;582482;237;26664;-63
2022/09/05 01:45:26;;;;;;;3.28;2.97;;;15.80;67.60;;;;;;601568;234;26626;-63
2022/09/05 01:47:53;;;;;;;3.17;2.97;;;15.70;68.50;;;;;;602727;234;26603;-64
2022/09/05 01:50:26;;;;;;;3.30;3.00;;;15.70;68.10;;;;;;610905;235;26825;-63
2022/09/05 01:53:24;;;;;;;3.40;3.20;;;15.60;67.90;;;;;;611348;235;26656;-63
2022/09/05 01:55:45;;;;;;;3.80;3.40;;;15.60;67.90;;;;;;602540;235;26907;-63
2022/09/05 01:58:13;;;;;;;3.35;2.90;;;15.50;69.50;;;;;;605728;232;26583;-63
2022/09/05 02:00:56;;;;;;;3.85;3.20;;;15.50;69.00;;;;;;608566;235;26692;-63
2022/09/05 02:03:26;;;;;;;3.42;3.12;;;15.50;69.00;;;;;;608907;235;26638;-64
2022/09/05 02:06:01;;;;;;;3.08;2.85;;;15.50;69.80;;;;;;605241;235;26880;-64
2022/09/05 02:08:46;;;;;;;3.72;3.37;;;15.50;69.50;;;;;;606390;234;26602;-64
2022/09/05 02:11:15;;;;;;;3.20;2.90;;;15.40;69.30;;;;;;609902;235;26668;-64
2022/09/05 02:13:43;;;;;;;3.97;3.10;;;15.40;70.30;;;;;;609671;235;26647;-64
2022/09/05 02:16:24;;;;;;;4.10;3.30;;;15.40;70.70;;;;;;606561;231;26582;-64
2022/09/05 02:19:05;;;;;;;3.33;3.08;;;15.40;69.50;;;;;;605713;236;26590;-64
2022/09/05 02:22:03;;;;;;;3.83;3.53;;;15.40;69.50;;;;;;610700;234;26863;-64
2022/09/05 02:24:33;;;;;;;3.87;3.58;;;15.30;70.40;;;;;;597637;235;26661;-64
2022/09/05 02:27:07;;;;;;;3.50;3.20;;;15.30;70.20;;;;;;610539;235;26686;-64
2022/09/05 02:29:51;;;;;;;3.33;3.10;;;15.30;70.40;;;;;;607251;235;26651;-64
2022/09/05 02:32:23;;;;;;;3.35;3.05;;;15.30;70.40;;;;;;610161;234;26671;-64
2022/09/05 02:35:06;;;;;;;4.15;3.10;;;15.30;70.60;;;;;;611398;235;26859;-64
2022/09/05 02:37:59;;;;;;;3.45;3.15;;;15.30;70.40;;;;;;607110;235;26600;-64
2022/09/05 02:40:45;;;;;;;3.17;2.87;;;15.20;71.00;;;;;;602892;237;26619;-64
2022/09/05 02:43:15;;;;;;;4.20;3.80;;;15.20;70.90;;;;;;610193;235;26671;-64
2022/09/05 02:45:57;;;;;;;3.40;3.10;;;15.20;71.00;;;;;;607607;235;26593;-64
2022/09/05 02:48:24;;;;;;;3.50;3.20;;;15.20;70.80;;;;;;609365;234;26571;-64
2022/09/05 02:50:52;;;;;;;3.35;3.05;;;15.20;70.90;;;;;;608397;232;26644;-64
2022/09/05 02:53:20;;;;;;;3.42;3.12;;;15.20;71.60;;;;;;608536;234;27055;-65
2022/09/05 02:56:05;;;;;;;3.42;3.12;;;15.20;71.10;;;;;;611727;234;26598;-65
2022/09/05 02:58:48;;;;;;;3.80;3.17;;;15.10;71.40;;;;;;607725;234;26563;-64
2022/09/05 03:01:19;;;;;;;3.75;3.45;;;15.20;71.40;;;;;;607373;235;26917;-64
2022/09/05 03:04:01;;;;;;;3.53;3.22;;;15.20;71.40;;;;;;606592;235;26632;-65
2022/09/05 03:06:31;;;;;;;5.05;3.55;;;15.20;71.80;;;;;;600142;236;26634;-65
2022/09/05 03:09:05;;;;;;;3.35;3.05;;;15.10;71.70;;;;;;607443;235;26601;-66
2022/09/05 03:11:55;;;;;;;3.42;3.00;;;15.10;71.60;;;;;;608726;235;26654;-66
2022/09/05 03:14:26;;;;;;;5.90;3.62;;;15.10;71.30;;;;;;594207;235;26649;-65
2022/09/05 03:17:28;;;;;;;3.33;3.00;;;15.00;71.10;;;;;;608098;235;26588;-65
2022/09/05 03:20:10;;;;;;;3.10;2.80;;;15.00;71.50;;;;;;599123;235;27054;-65
2022/09/05 03:22:55;;;;;;;3.20;3.00;;;15.00;72.00;;;;;;611042;234;26613;-65
2022/09/05 03:25:45;;;;;;;3.90;3.03;;;15.00;72.70;;;;;;610205;235;26673;-65
2022/09/05 03:28:34;;;;;;;4.70;3.10;;;14.90;71.50;;;;;;608426;235;26620;-65
2022/09/05 03:31:19;;;;;;;3.10;2.78;;;15.00;72.90;;;;;;603200;235;26641;-66
2022/09/05 03:33:53;;;;;;;3.60;3.30;;;14.90;72.80;;;;;;606035;235;26812;-66
2022/09/05 03:36:28;;;;;;;3.72;3.37;;;14.90;72.70;;;;;;606078;235;27110;-66
2022/09/05 03:39:05;;;;;;;4.22;3.33;;;14.90;72.60;;;;;;608290;235;26694;-65
2022/09/05 03:41:48;;;;;;;4.65;3.30;;;14.90;73.20;;;;;;605487;236;26695;-66
2022/09/05 03:44:36;;;;;;;3.67;3.30;;;14.90;72.20;;;;;;606696;235;26948;-66
2022/09/05 03:47:07;;;;;;;3.45;3.15;;;14.80;72.30;;;;;;597257;234;26692;-66
2022/09/05 03:49:41;;;;;;;3.50;3.20;;;14.80;73.30;;;;;;605575;235;26583;-66
2022/09/05 03:52:14;;;;;;;3.12;2.90;;;14.80;73.60;;;;;;607815;235;26639;-66
2022/09/05 03:54:44;;;;;;;3.67;3.37;;;14.70;73.20;;;;;;605823;234;26578;-66
2022/09/05 03:57:30;;;;;;;3.78;3.33;;;14.70;73.50;;;;;;611833;234;26850;-66
2022/09/05 04:00:05;;;;;;;3.58;3.28;;;14.70;73.40;;;;;;606772;235;26661;-66
2022/09/05 04:02:29;;;;;;;3.85;2.95;;;14.60;73.70;;;;;;609348;232;26649;-66
2022/09/05 04:05:07;;;;;;;3.42;3.12;;;14.60;75.00;;;;;;609970;234;27266;-66
2022/09/05 04:07:42;;;;;;;3.05;2.85;;;14.60;74.40;;;;;;608530;235;26686;-66
2022/09/05 04:10:12;;;;;;;4.00;3.10;;;14.60;74.90;;;;;;607231;234;26640;-67
2022/09/05 04:12:46;;;;;;;3.60;3.20;;;14.60;74.70;;;;;;607390;235;26611;-66
2022/09/05 04:15:16;;;;;;;3.45;3.15;;;14.50;74.40;;;;;;609924;235;26660;-66
2022/09/05 04:17:43;;;;;;;3.00;2.80;;;14.50;74.20;;;;;;610683;235;26622;-66
2022/09/05 04:20:26;;;;;;;3.87;3.30;;;14.50;74.00;;;;;;609121;235;27008;-66
2022/09/05 04:23:03;;;;;;;3.37;3.08;;;14.50;74.80;;;;;;597794;234;26689;-66
2022/09/05 04:26:06;;;;;;;3.60;3.30;;;14.50;74.60;;;;;;610622;235;26578;-66
2022/09/05 04:28:42;;;;;;;2.83;2.62;;;14.50;74.70;;;;;;610501;235;26556;-66
2022/09/05 04:31:19;;;;;;;3.12;2.83;;;14.50;74.90;;;;;;603183;235;26948;-66
2022/09/05 04:33:57;;;;;;;3.28;3.00;;;14.50;75.00;;;;;;604701;235;26596;-66
2022/09/05 04:36:27;;;;;;;3.12;2.72;;;14.50;75.50;;;;;;610430;235;26643;-66
2022/09/05 04:39:05;;;;;;;3.03;2.75;;;14.50;74.70;;;;;;607909;235;26905;-66
2022/09/05 04:41:33;;;;;;;3.45;3.12;;;14.60;75.30;;;;;;608063;235;26677;-66
2022/09/05 04:44:01;;;;;;;3.28;2.47;;;14.50;74.60;;;;;;607873;235;26633;-66
2022/09/05 04:46:43;;;;;;;2.92;2.60;;;14.60;74.60;;;;;;606127;235;26592;-66
2022/09/05 04:49:11;;;;;;;2.75;2.55;;;14.50;74.40;;;;;;609748;234;26634;-66
2022/09/05 04:52:03;;;;;;;4.28;3.00;;;14.60;74.50;;;;;;605989;235;26602;-66
2022/09/05 04:54:34;;;;;;;3.10;2.87;;;14.60;74.50;;;;;;599630;235;26666;-67
2022/09/05 04:57:10;;;;;;;3.75;2.80;;;14.70;75.50;;;;;;605418;235;26649;-67
2022/09/05 04:59:58;;;;;;;3.40;2.85;;;14.70;75.40;;;;;;607008;235;26663;-67
2022/09/05 05:02:40;;;;;;;3.80;3.40;;;14.80;74.60;;;;;;606357;235;26605;-67
2022/09/05 05:05:09;;;;;;;3.50;2.70;;;14.80;74.60;;;;;;605121;235;26591;-67
2022/09/05 05:07:46;;;;;;;3.08;2.78;;;14.90;74.50;;;;;;609581;235;26639;-67
2022/09/05 05:10:16;;;;;;;3.00;2.62;;;14.90;74.40;;;;;;611465;234;27141;-67
2022/09/05 05:12:59;;;;;;;2.95;2.75;;;15.00;73.60;;;;;;609462;230;26615;-67
2022/09/05 05:15:26;;;;;;;2.90;2.60;;;15.10;73.50;;;;;;603239;234;26652;-67
2022/09/05 05:18:09;;;;;;;2.67;2.47;;;15.20;73.50;;;;;;611263;234;26587;-67
2022/09/05 05:20:38;;;;;;;2.70;2.50;;;15.20;73.50;;;;;;603086;234;26583;-66
2022/09/05 05:23:05;;;;;;;3.97;2.95;;;15.30;73.60;;;;;;609656;234;26841;-67
2022/09/05 05:25:33;;;;;;;3.95;2.80;;;15.40;73.10;;;;;;608434;234;26606;-67
2022/09/05 05:28:08;;;;;;;3.20;2.90;;;15.50;73.00;;;;;;609557;235;26611;-68
2022/09/05 05:30:36;;;;;;;2.95;2.65;;;15.50;73.10;;;;;;609382;235;26777;-67
2022/09/05 05:33:07;;;;;;;2.75;2.37;;;15.60;73.10;;;;;;609868;235;26605;-67
2022/09/05 05:35:34;;;;;;;2.53;1.83;;;15.50;73.00;;;;;;610086;235;26653;-65
2022/09/05 05:38:07;;;;;;;2.12;1.92;;;15.50;72.90;;;;;;609013;234;26860;-66
2022/09/05 05:40:34;;;;;;;8.15;3.10;;;15.50;72.60;;;;;;609407;235;26621;-68
2022/09/05 05:43:12;;;;;;;7.12;2.90;;;15.60;73.20;;;;;;609252;235;26687;-66
2022/09/05 05:45:39;;;;;;;8.98;2.87;;;15.60;73.90;;;;;;609585;234;26638;-67
2022/09/05 05:48:23;;;;;;;2.40;2.20;;;15.60;73.00;;;;;;604823;235;26584;-67
2022/09/05 05:51:07;;;;;;;4.15;2.75;;;15.60;73.80;;;;;;603999;235;26594;-67
2022/09/05 05:53:49;;;;;;;4.07;2.90;;;15.60;73.80;;;;;;608005;234;26973;-67
2022/09/05 05:56:21;;;;;;;4.32;2.30;;;15.60;72.70;;;;;;604322;235;26881;-67
2022/09/05 05:58:52;;;;;;;3.20;2.67;;;15.70;73.60;;;;;;608020;235;26604;-67
2022/09/05 06:01:39;;;;;;;3.10;2.58;;;15.80;73.20;;;;;;609264;235;26877;-67
2022/09/05 06:04:26;;;;;;;2.37;2.20;;;15.80;72.60;;;;;;595759;237;26653;-67
2022/09/05 06:07:00;;;;;;;6.40;3.10;;;15.80;73.30;;;;;;610092;234;26689;-66
2022/09/05 06:09:39;;;;;;;2.45;2.25;;;15.90;72.60;;;;;;608900;235;26651;-66
2022/09/05 06:12:20;;;;;;;2.97;2.40;;;16.00;72.90;;;;;;608303;235;26661;-68
2022/09/05 06:15:06;;;;;;;2.90;2.60;;;16.10;73.00;;;;;;600587;234;26662;-67
2022/09/05 06:18:08;;;;;;;3.67;2.72;;;16.30;72.40;;;;;;599583;231;26663;-67
2022/09/05 06:20:57;;;;;;;2.17;2.03;;;16.30;72.10;;;;;;601005;235;26651;-68
2022/09/05 06:23:43;;;;;;;13.62;3.75;;;16.40;72.40;;;;;;608839;235;26603;-65
2022/09/05 06:26:30;;;;;;;31.73;8.20;;;16.50;72.00;;;;;;608033;234;26625;-66
2022/09/05 06:29:08;;;;;;;10.55;3.55;;;16.60;73.30;;;;;;600345;234;26645;-66
2022/09/05 06:31:51;;;;;;;15.88;5.12;;;16.80;70.70;;;;;;609233;234;26687;-66
2022/09/05 06:34:34;;;;;;;20.25;6.55;;;16.90;71.50;;;;;;604722;234;26645;-66
2022/09/05 06:37:12;;;;;;;3.72;2.50;;;17.00;73.00;;;;;;609267;235;26647;-66
2022/09/05 06:39:56;;;;;;;1.85;1.73;;;17.10;70.90;;;;;;608941;235;27012;-66
2022/09/05 06:42:26;;;;;;;5.97;3.03;;;17.40;70.50;;;;;;609835;235;26664;-65
2022/09/05 06:45:06;;;;;;;3.90;2.35;;;17.30;70.40;;;;;;609282;235;26574;-65
2022/09/05 06:47:34;;;;;;;1.58;1.48;;;17.60;70.10;;;;;;607452;235;26594;-66
2022/09/05 06:50:05;;;;;;;4.15;2.58;;;17.70;70.00;;;;;;607681;235;26617;-66
2022/09/05 06:52:54;;;;;;;4.30;2.12;;;17.60;69.80;;;;;;607743;235;26632;-66
2022/09/05 06:55:41;;;;;;;1.95;1.80;;;17.80;70.50;;;;;;602129;238;26566;-67
2022/09/05 06:58:32;;;;;;;2.25;2.05;;;17.80;70.40;;;;;;598772;235;26611;-66
2022/09/05 07:00:59;;;;;;;4.47;2.17;;;17.80;69.70;;;;;;605275;234;26593;-67
2022/09/05 07:03:34;;;;;;;1.60;1.50;;;17.90;69.50;;;;;;610907;235;26618;-66
2022/09/05 07:06:16;;;;;;;1.83;1.73;;;18.20;70.30;;;;;;607793;235;26647;-67
2022/09/05 07:08:50;;;;;;;6.72;2.62;;;18.20;69.80;;;;;;607331;230;26656;-67
2022/09/05 07:11:20;;;;;;;2.78;2.47;;;18.20;69.70;;;;;;608762;235;26867;-67
2022/09/05 07:13:57;;;;;;;6.25;2.37;;;18.40;70.20;;;;;;606736;235;26665;-66
2022/09/05 07:16:35;;;;;;;3.70;2.83;;;18.40;69.30;;;;;;609259;236;26897;-66
2022/09/05 07:19:03;;;;;;;4.57;2.75;;;18.40;69.30;;;;;;606161;233;26826;-67
2022/09/05 07:21:32;;;;;;;3.20;2.37;;;18.50;69.50;;;;;;603578;235;26622;-68
2022/09/05 07:24:02;;;;;;;3.37;2.35;;;18.60;68.70;;;;;;606409;235;26852;-67
2022/09/05 07:26:29;;;;;;;3.78;2.00;;;18.60;68.80;;;;;;606203;235;26656;-67
2022/09/05 07:28:57;;;;;;;1.70;1.60;;;18.80;68.30;;;;;;606801;235;26646;-67
2022/09/05 07:31:25;;;;;;;1.60;1.50;;;18.80;68.30;;;;;;606700;232;26877;-67
2022/09/05 07:34:00;;;;;;;1.90;1.80;;;19.00;69.00;;;;;;606563;236;26600;-68
2022/09/05 07:36:29;;;;;;;1.85;1.75;;;19.00;69.00;;;;;;605513;236;26626;-67
2022/09/05 07:38:55;;;;;;;1.90;1.80;;;19.20;68.10;;;;;;611852;232;26634;-67
2022/09/05 07:41:28;;;;;;;3.45;1.90;;;19.10;68.00;;;;;;611064;234;26667;-67
2022/09/05 07:43:56;;;;;;;2.15;1.80;;;19.10;67.80;;;;;;609168;234;26878;-68
2022/09/05 07:46:26;;;;;;;2.15;1.87;;;19.10;68.40;;;;;;607665;234;26628;-68
2022/09/05 07:48:53;;;;;;;2.60;1.90;;;19.10;67.70;;;;;;611777;235;26665;-68
2022/09/05 07:51:22;;;;;;;2.75;1.85;;;19.00;68.40;;;;;;610805;235;26599;-66
2022/09/05 07:53:51;;;;;;;2.22;1.87;;;18.90;68.30;;;;;;609249;235;26659;-65
2022/09/05 07:56:16;;;;;;;1.90;1.80;;;19.00;68.00;;;;;;610171;235;26563;-65
2022/09/05 07:58:44;;;;;;;3.10;2.62;;;19.00;68.20;;;;;;603179;235;26554;-65
2022/09/05 08:01:11;;;;;;;1.87;1.77;;;19.30;67.00;;;;;;609658;235;26846;-65
2022/09/05 08:03:38;;;;;;;2.20;1.98;;;19.30;67.40;;;;;;607809;235;26816;-66
2022/09/05 08:06:06;;;;;;;2.00;1.90;;;19.30;67.90;;;;;;611356;234;26580;-65
2022/09/05 08:08:49;;;;;;;2.12;1.90;;;19.40;67.30;;;;;;610005;235;26651;-66
2022/09/05 08:11:16;;;;;;;1.67;1.60;;;19.50;67.50;;;;;;610527;234;26627;-66
2022/09/05 08:13:50;;;;;;;1.90;1.80;;;19.60;67.60;;;;;;610725;234;26945;-66
2022/09/05 08:16:17;;;;;;;2.00;1.90;;;19.80;68.20;;;;;;607167;235;26623;-66
2022/09/05 08:18:51;;;;;;;2.20;2.10;;;19.80;66.10;;;;;;609255;235;26597;-66
2022/09/05 08:21:25;;;;;;;1.85;1.75;;;19.80;66.10;;;;;;610141;230;26661;-66
2022/09/05 08:23:55;;;;;;;1.90;1.80;;;19.90;65.70;;;;;;604125;236;26595;-67
2022/09/05 08:26:29;;;;;;;1.80;1.70;;;19.90;65.70;;;;;;604214;238;26834;-65
2022/09/05 08:29:10;;;;;;;1.90;1.80;;;19.90;66.30;;;;;;611203;235;26856;-66
2022/09/05 08:31:38;;;;;;;2.00;1.90;;;20.00;66.00;;;;;;609789;235;26581;-66
2022/09/05 08:34:08;;;;;;;1.80;1.70;;;20.00;66.10;;;;;;608608;235;26633;-65
2022/09/05 08:36:35;;;;;;;2.85;1.80;;;19.90;66.70;;;;;;605750;235;26843;-65
2022/09/05 08:39:03;;;;;;;2.00;1.90;;;19.80;66.50;;;;;;607920;235;26862;-66
2022/09/05 08:42:00;;;;;;;1.70;1.60;;;19.80;66.40;;;;;;608945;236;26610;-66
2022/09/05 08:44:47;;;;;;;2.08;1.65;;;19.70;66.50;;;;;;589469;235;26649;-68
2022/09/05 08:47:19;;;;;;;1.65;1.55;;;19.70;67.20;;;;;;600032;235;26643;-66
2022/09/05 08:49:56;;;;;;;4.18;2.00;;;19.90;67.00;;;;;;607161;235;26624;-66
2022/09/05 08:52:42;;;;;;;1.95;1.85;;;20.10;66.50;;;;;;610603;234;26871;-65
2022/09/05 08:55:14;;;;;;;1.85;1.70;;;20.20;66.30;;;;;;608235;234;26580;-65
2022/09/05 08:57:52;;;;;;;1.83;1.67;;;20.20;66.40;;;;;;610978;234;26969;-65
2022/09/05 09:00:19;;;;;;;2.10;1.95;;;20.30;66.30;;;;;;609872;235;26617;-66
2022/09/05 09:02:58;;;;;;;21.58;5.68;;;20.40;66.30;;;;;;605833;235;26892;-66
2022/09/05 09:05:26;;;;;;;28.70;6.50;;;20.40;66.20;;;;;;610042;235;26870;-67
2022/09/05 09:08:02;;;;;;;14.90;4.68;;;20.40;65.80;;;;;;607316;235;26635;-68
2022/09/05 09:10:46;;;;;;;16.67;4.68;;;20.50;66.20;;;;;;609995;235;26705;-67
2022/09/05 09:13:20;;;;;;;12.52;4.22;;;20.50;65.90;;;;;;608370;235;26663;-67
2022/09/05 09:16:09;;;;;;;19.55;6.05;;;20.70;65.30;;;;;;607794;235;26708;-69
2022/09/05 09:18:36;;;;;;;2.50;2.30;;;20.90;65.40;;;;;;609527;235;26630;-66
2022/09/05 09:21:19;;;;;;;5.32;2.95;;;21.10;65.50;;;;;;609579;234;26680;-65
2022/09/05 09:23:51;;;;;;;33.47;9.05;;;21.20;65.20;;;;;;607336;235;26555;-69
2022/09/05 09:26:22;;;;;;;6.35;3.53;;;21.20;64.90;;;;;;608516;234;27341;-69
2022/09/05 09:28:56;;;;;;;20.02;4.97;;;21.30;64.90;;;;;;604949;231;26889;-68
2022/09/05 09:31:46;;;;;;;4.78;2.58;;;21.30;64.70;;;;;;607815;236;26658;-68
2022/09/05 09:34:21;;;;;;;2.22;1.92;;;21.30;65.00;;;;;;606065;235;26873;-68
2022/09/05 09:36:54;;;;;;;2.12;2.03;;;21.30;64.70;;;;;;604660;236;26648;-68
2022/09/05 09:39:31;;;;;;;2.15;1.95;;;21.40;64.50;;;;;;611542;234;26923;-68
2022/09/05 09:41:58;;;;;;;2.42;2.22;;;21.40;64.60;;;;;;607478;235;26659;-66
2022/09/05 09:44:38;;;;;;;3.70;2.20;;;21.60;64.90;;;;;;609509;235;26708;-66
2022/09/05 09:47:07;;;;;;;1.80;1.70;;;21.60;64.80;;;;;;605068;235;26953;-66
2022/09/05 09:49:50;;;;;;;2.10;2.00;;;21.70;64.60;;;;;;609547;235;26572;-66
2022/09/05 09:52:23;;;;;;;2.33;2.15;;;21.90;64.70;;;;;;606817;235;26890;-67
2022/09/05 09:55:13;;;;;;;2.15;2.05;;;21.90;64.10;;;;;;609036;235;26577;-66
2022/09/05 09:57:43;;;;;;;1.98;1.87;;;21.90;64.10;;;;;;601929;234;26658;-66
2022/09/05 10:00:20;;;;;;;1.80;1.70;;;22.00;64.30;;;;;;608329;234;26876;-66
2022/09/05 10:03:00;;;;;;;2.00;1.90;;;22.10;63.60;;;;;;611499;234;26887;-66
2022/09/05 10:05:41;;;;;;;3.55;2.40;;;22.10;63.90;;;;;;610978;234;26658;-67
2022/09/05 10:08:08;;;;;;;2.05;1.90;;;22.20;63.50;;;;;;609781;234;26879;-66
2022/09/05 10:10:43;;;;;;;2.45;1.85;;;22.10;63.30;;;;;;611206;234;26621;-66
2022/09/05 10:13:50;;;;;;;1.80;1.70;;;22.20;64.20;;;;;;605392;235;27347;-72
2022/09/05 10:16:35;;;;;;;1.80;1.70;;;22.20;64.30;;;;;;604450;235;26651;-68
2022/09/05 10:19:09;;;;;;;1.80;1.70;;;22.20;63.30;;;;;;608610;235;26715;-70
2022/09/05 10:21:57;;;;;;;1.92;1.80;;;22.30;63.80;;;;;;607894;235;26663;-74
2022/09/05 10:24:29;;;;;;;1.95;1.77;;;22.20;63.10;;;;;;607302;235;26660;-72
2022/09/05 10:27:06;;;;;;;1.77;1.67;;;22.30;63.40;;;;;;610793;235;26969;-71
2022/09/05 10:29:42;;;;;;;2.20;1.95;;;22.40;63.70;;;;;;612055;234;26599;-72
2022/09/05 10:32:15;;;;;;;1.73;1.65;;;22.40;63.30;;;;;;608279;235;26658;-72
2022/09/05 10:34:58;;;;;;;1.87;1.77;;;22.50;62.40;;;;;;610189;235;26675;-72
2022/09/05 10:37:26;;;;;;;1.85;1.75;;;22.50;63.00;;;;;;608322;235;26582;-71
2022/09/05 10:39:53;;;;;;;2.05;1.95;;;22.60;63.20;;;;;;606971;235;26617;-73
2022/09/05 10:42:29;;;;;;;1.92;1.83;;;22.60;61.90;;;;;;607626;235;26697;-73
2022/09/05 10:44:56;;;;;;;1.90;1.80;;;22.60;61.90;;;;;;610495;235;26639;-73
2022/09/05 10:47:46;;;;;;;2.45;1.90;;;22.80;63.50;;;;;;612286;234;26643;-73
2022/09/05 10:50:31;;;;;;;2.10;2.00;;;22.80;63.00;;;;;;608018;235;27417;-73
2022/09/05 10:53:02;;;;;;;2.08;1.98;;;22.80;61.70;;;;;;609999;234;26854;-71
2022/09/05 10:55:32;;;;;;;1.85;1.75;;;22.80;60.80;;;;;;609405;235;26644;-72
2022/09/05 10:58:07;;;;;;;1.90;1.80;;;22.80;60.90;;;;;;607531;235;26600;-71
2022/09/05 11:00:55;;;;;;;1.90;1.80;;;22.90;61.60;;;;;;605641;235;26566;-72
2022/09/05 11:03:30;;;;;;;1.90;1.80;;;23.10;61.20;;;;;;596506;234;26814;-72
2022/09/05 11:05:57;;;;;;;1.92;1.83;;;23.00;61.00;;;;;;606837;235;26857;-72
2022/09/05 11:08:42;;;;;;;1.85;1.75;;;23.20;60.10;;;;;;610527;231;26632;-73
2022/09/05 11:11:14;;;;;;;2.20;2.10;;;23.30;59.70;;;;;;598100;236;26706;-73
2022/09/05 11:13:48;;;;;;;1.80;1.70;;;23.30;59.50;;;;;;611568;233;26640;-72
2022/09/05 11:16:33;;;;;;;1.98;1.87;;;23.40;59.80;;;;;;608967;234;26982;-71
2022/09/05 11:19:15;;;;;;;1.90;1.80;;;23.60;59.70;;;;;;611441;234;27294;-71
2022/09/05 11:22:00;;;;;;;2.17;1.75;;;23.70;59.00;;;;;;605410;235;26620;-72
2022/09/05 11:24:29;;;;;;;2.10;1.87;;;23.80;59.30;;;;;;609979;235;26647;-72
2022/09/05 11:27:08;;;;;;;1.85;1.60;;;24.00;58.80;;;;;;605805;235;26899;-72
2022/09/05 11:29:51;;;;;;;1.62;1.62;;;24.10;58.70;;;;;;611703;234;26678;-73
2022/09/05 11:32:29;;;;;;;2.20;2.00;;;24.10;58.70;;;;;;608730;235;26647;-73
2022/09/05 11:35:15;;;;;;;2.12;2.03;;;24.00;58.50;;;;;;605955;235;26584;-72
2022/09/05 11:37:59;;;;;;;1.80;1.70;;;24.00;58.10;;;;;;609676;234;26593;-72
2022/09/05 11:40:48;;;;;;;2.00;1.90;;;23.80;58.60;;;;;;599088;234;26657;-72
2022/09/05 11:43:36;;;;;;;1.70;1.60;;;23.80;58.30;;;;;;605459;234;26585;-72
2022/09/05 11:46:22;;;;;;;1.85;1.75;;;24.00;57.80;;;;;;604067;235;26615;-72
2022/09/05 11:49:20;;;;;;;2.25;1.77;;;24.10;57.50;;;;;;609898;235;26679;-73
2022/09/05 11:52:22;;;;;;;2.15;2.00;;;24.10;57.50;;;;;;600616;237;26947;-73
2022/09/05 11:55:10;;;;;;;2.00;1.90;;;24.60;57.20;;;;;;597624;237;26660;-73
2022/09/05 11:57:55;;;;;;;1.80;1.70;;;24.60;57.20;;;;;;606466;234;26601;-73
2022/09/05 12:00:23;;;;;;;2.03;1.92;;;24.90;57.30;;;;;;604424;235;26916;-73
2022/09/05 12:03:19;;;;;;;2.17;1.80;;;25.00;57.50;;;;;;609562;234;26929;-73
2022/09/05 12:05:58;;;;;;;1.62;1.52;;;25.10;56.60;;;;;;602489;235;26934;-73
2022/09/05 12:08:34;;;;;;;1.58;1.37;;;25.00;55.90;;;;;;605660;235;26601;-73
2022/09/05 12:11:20;;;;;;;2.10;2.00;;;25.00;56.60;;;;;;611608;234;26971;-73
2022/09/05 12:13:53;;;;;;;1.75;1.73;;;24.90;56.40;;;;;;604063;235;26677;-73
2022/09/05 12:16:20;;;;;;;1.77;1.67;;;24.90;56.50;;;;;;609394;235;26584;-73
2022/09/05 12:19:07;;;;;;;1.58;1.58;;;25.00;56.60;;;;;;605210;236;27013;-72
2022/09/05 12:21:38;;;;;;;2.12;1.92;;;25.10;55.50;;;;;;606016;236;26685;-72
2022/09/05 12:24:13;;;;;;;1.80;1.70;;;25.10;55.60;;;;;;608996;232;26662;-72
2022/09/05 12:26:44;;;;;;;1.65;1.60;;;25.20;55.70;;;;;;609776;234;26603;-72
2022/09/05 12:29:12;;;;;;;1.90;1.80;;;25.30;55.50;;;;;;607729;234;26605;-71
2022/09/05 12:31:40;;;;;;;2.28;2.08;;;25.40;56.10;;;;;;609356;234;26631;-72
2022/09/05 12:34:08;;;;;;;2.00;1.90;;;25.60;55.50;;;;;;608968;236;26607;-72
2022/09/05 12:36:36;;;;;;;2.50;2.15;;;25.80;54.90;;;;;;605852;235;26616;-72
2022/09/05 12:39:05;;;;;;;2.00;1.90;;;25.90;54.80;;;;;;611262;235;26591;-71
2022/09/05 12:41:38;;;;;;;2.00;1.90;;;26.10;54.40;;;;;;607294;235;26619;-72
2022/09/05 12:44:20;;;;;;;1.90;1.80;;;26.20;54.60;;;;;;606051;236;26586;-72
2022/09/05 12:46:53;;;;;;;2.00;1.90;;;26.30;54.50;;;;;;610739;235;26601;-72
2022/09/05 12:49:29;;;;;;;1.73;1.70;;;26.50;53.50;;;;;;606515;236;26809;-72
2022/09/05 12:51:58;;;;;;;2.17;2.08;;;26.60;53.60;;;;;;606649;235;26625;-71
2022/09/05 12:54:26;;;;;;;2.20;2.10;;;26.90;53.40;;;;;;610761;235;26917;-72
2022/09/05 12:56:56;;;;;;;2.12;2.03;;;26.80;53.20;;;;;;611677;230;26561;-72
2022/09/05 12:59:23;;;;;;;2.03;1.92;;;26.90;53.00;;;;;;607702;236;26603;-72
2022/09/05 13:02:02;;;;;;;2.28;2.17;;;26.80;53.30;;;;;;608735;235;26647;-72
2022/09/05 13:04:24;;;;;;;2.50;2.28;;;26.80;53.30;;;;;;605368;235;26905;-72
2022/09/05 13:06:53;;;;;;;2.20;2.10;;;26.80;52.80;;;;;;612208;234;26621;-72
2022/09/05 13:09:23;;;;;;;2.00;1.90;;;26.60;52.30;;;;;;607092;235;26642;-72
2022/09/05 13:12:02;;;;;;;2.15;2.05;;;26.60;52.20;;;;;;607397;235;26951;-72
2022/09/05 13:14:22;;;;;;;2.33;2.22;;;26.70;52.70;;;;;;607763;236;26628;-73
2022/09/05 13:16:49;;;;;;;2.47;2.30;;;26.90;53.50;;;;;;606139;234;26636;-72
2022/09/05 13:19:32;;;;;;;2.70;2.50;;;26.90;52.30;;;;;;610707;234;26642;-72
2022/09/05 13:22:00;;;;;;;2.42;2.33;;;27.00;52.10;;;;;;608017;235;26684;-73
2022/09/05 13:24:30;;;;;;;3.15;2.30;;;26.80;52.40;;;;;;605702;234;26807;-73
2022/09/05 13:26:57;;;;;;;2.60;2.50;;;26.60;52.40;;;;;;611168;235;26643;-73
2022/09/05 13:29:24;;;;;;;2.40;2.30;;;26.60;52.40;;;;;;607114;236;26868;-73
2022/09/05 13:31:57;;;;;;;2.50;2.30;;;26.50;52.70;;;;;;608321;235;26674;-73
2022/09/05 13:34:36;;;;;;;2.12;2.03;;;26.50;53.10;;;;;;605632;235;26628;-73